createdAt,value
2023-04-06T00:01:34.238Z,62.10
2023-04-06T00:04:03.939Z,61.64
2023-04-06T00:06:33.540Z,60.41
2023-04-06T00:09:03.441Z,59.71
2023-04-06T00:11:32.796Z,59.79
2023-04-06T00:14:02.595Z,60.00
2023-04-06T00:16:31.894Z,59.60
2023-04-06T00:19:01.156Z,59.30
2023-04-06T00:21:32.323Z,59.83
2023-04-06T00:24:02.090Z,58.71
2023-04-06T00:26:31.352Z,59.72
2023-04-06T00:29:01.331Z,59.75
2023-04-06T00:31:31.555Z,59.02
2023-04-06T00:34:00.964Z,58.70
2023-04-06T00:36:31.152Z,58.70
2023-04-06T00:39:00.718Z,58.80
2023-04-06T00:41:30.376Z,59.52
2023-04-06T00:43:59.749Z,59.44
2023-04-06T00:46:29.159Z,59.17
2023-04-06T00:48:59.245Z,59.39
2023-04-06T00:51:28.831Z,59.12
2023-04-06T00:53:58.519Z,59.07
2023-04-06T00:56:28.521Z,59.30
2023-04-06T00:58:58.563Z,59.70
2023-04-06T01:01:29.710Z,59.61
2023-04-06T01:04:03.276Z,59.91
2023-04-06T01:06:34.224Z,60.42
2023-04-06T01:09:04.273Z,59.67
2023-04-06T01:11:33.599Z,60.37
2023-04-06T01:14:04.239Z,60.43
2023-04-06T01:16:38.423Z,60.73
2023-04-06T01:19:12.677Z,60.04
2023-04-06T01:21:44.469Z,60.15
2023-04-06T01:24:34.509Z,60.41
2023-04-06T01:27:14.949Z,60.16
2023-04-06T01:29:49.246Z,60.49
2023-04-06T01:32:20.451Z,60.42
2023-04-06T01:34:52.053Z,60.54
2023-04-06T01:37:23.010Z,60.71
2023-04-06T01:39:54.265Z,60.68
2023-04-06T01:42:25.267Z,60.79
2023-04-06T01:44:54.857Z,61.17
2023-04-06T01:47:24.222Z,60.72
2023-04-06T01:49:53.662Z,60.61
2023-04-06T01:52:24.597Z,61.50
2023-04-06T01:54:54.926Z,60.83
2023-04-06T01:57:26.551Z,61.53
2023-04-06T01:59:57.735Z,61.07
2023-04-06T02:02:28.919Z,61.19
2023-04-06T02:05:00.812Z,61.73
2023-04-06T02:07:30.898Z,61.83
2023-04-06T02:10:00.453Z,62.26
2023-04-06T02:12:31.431Z,62.26
2023-04-06T02:15:00.896Z,62.04
2023-04-06T02:17:30.372Z,62.25
2023-04-06T02:20:00.049Z,63.33
2023-04-06T02:22:29.374Z,62.66
2023-04-06T02:24:58.846Z,62.96
2023-04-06T02:27:28.320Z,63.30
2023-04-06T02:29:57.620Z,63.15
2023-04-06T02:32:27.257Z,63.40
2023-04-06T02:34:57.796Z,64.02
2023-04-06T02:37:27.410Z,65.24
2023-04-06T02:39:56.900Z,65.36
2023-04-06T02:42:27.884Z,64.76
2023-04-06T02:44:57.994Z,63.80
2023-04-06T02:47:28.992Z,64.04
2023-04-06T02:49:58.417Z,64.12
2023-04-06T02:52:28.355Z,64.09
2023-04-06T02:54:58.177Z,64.76
2023-04-06T02:57:29.806Z,64.28
2023-04-06T02:59:59.130Z,64.14
2023-04-06T03:02:30.593Z,64.58
2023-04-06T03:05:01.633Z,65.11
2023-04-06T03:07:33.070Z,64.51
2023-04-06T03:10:02.390Z,64.74
2023-04-06T03:12:32.865Z,64.71
2023-04-06T03:15:07.496Z,64.46
2023-04-06T03:17:38.533Z,64.60
2023-04-06T03:20:10.283Z,65.11
2023-04-06T03:22:39.991Z,64.82
2023-04-06T03:25:11.416Z,65.41
2023-04-06T03:27:41.754Z,64.97
2023-04-06T03:30:13.568Z,64.97
2023-04-06T03:32:42.843Z,64.63
2023-04-06T03:35:12.369Z,64.65
2023-04-06T03:37:41.718Z,66.41
2023-04-06T03:40:11.969Z,66.35
2023-04-06T03:42:41.259Z,65.09
2023-04-06T03:45:14.089Z,66.48
2023-04-06T03:47:45.584Z,66.56
2023-04-06T03:50:15.294Z,66.44
2023-04-06T03:52:46.587Z,65.27
2023-04-06T03:55:16.627Z,65.41
2023-04-06T03:57:46.183Z,65.56
2023-04-06T04:00:16.402Z,65.32
2023-04-06T04:02:46.053Z,65.32
2023-04-06T04:05:16.638Z,64.99
2023-04-06T04:07:47.516Z,65.06
2023-04-06T04:10:17.152Z,66.43
2023-04-06T04:12:46.600Z,66.08
2023-04-06T04:15:16.338Z,65.79
2023-04-06T04:17:47.290Z,65.76
2023-04-06T04:20:17.529Z,65.91
2023-04-06T04:22:47.010Z,67.06
2023-04-06T04:25:16.713Z,65.55
2023-04-06T04:27:47.919Z,65.31
2023-04-06T04:30:17.411Z,65.21
2023-04-06T04:32:46.738Z,65.10
2023-04-06T04:35:17.917Z,64.56
2023-04-06T04:37:47.449Z,64.59
2023-04-06T04:40:18.377Z,64.23
2023-04-06T04:42:49.471Z,64.30
2023-04-06T04:45:20.863Z,64.78
2023-04-06T04:47:50.672Z,64.29
2023-04-06T04:50:20.415Z,64.20
2023-04-06T04:52:51.501Z,63.61
2023-04-06T04:55:25.759Z,64.23
2023-04-06T04:57:56.852Z,64.32
2023-04-06T05:00:27.861Z,63.95
2023-04-06T05:02:59.278Z,64.26
2023-04-06T05:05:30.520Z,65.08
2023-04-06T05:08:00.397Z,64.22
2023-04-06T05:10:43.721Z,64.38
2023-04-06T05:13:13.639Z,64.38
2023-04-06T05:15:43.279Z,64.13
2023-04-06T05:18:33.155Z,64.40
2023-04-06T05:21:02.828Z,64.61
2023-04-06T05:23:33.888Z,64.76
2023-04-06T05:26:04.178Z,64.91
2023-04-06T05:28:35.153Z,65.49
2023-04-06T05:31:04.777Z,65.67
2023-04-06T05:33:36.114Z,66.00
2023-04-06T05:36:08.214Z,67.23
2023-04-06T05:38:39.660Z,66.65
2023-04-06T05:41:10.675Z,66.48
2023-04-06T05:43:41.933Z,67.71
2023-04-06T05:46:11.961Z,66.76
2023-04-06T05:48:42.224Z,67.21
2023-04-06T05:51:12.188Z,67.01
2023-04-06T05:53:43.313Z,67.48
2023-04-06T05:56:12.641Z,65.82
2023-04-06T05:58:42.662Z,65.65
2023-04-06T06:01:12.959Z,65.66
2023-04-06T06:03:43.934Z,66.14
2023-04-06T06:06:13.377Z,65.85
2023-04-06T06:08:50.808Z,65.92
2023-04-06T06:11:20.370Z,65.75
2023-04-06T06:13:49.884Z,65.70
2023-04-06T06:16:20.681Z,65.11
2023-04-06T06:18:50.753Z,66.19
2023-04-06T06:21:20.874Z,65.56
2023-04-06T06:23:51.254Z,65.73
2023-04-06T06:26:22.843Z,65.35
2023-04-06T06:28:52.490Z,65.44
2023-04-06T06:31:23.721Z,65.39
2023-04-06T06:33:53.195Z,65.41
2023-04-06T06:36:23.009Z,65.41
2023-04-06T06:38:52.771Z,65.65
2023-04-06T06:41:23.211Z,65.45
2023-04-06T06:43:52.534Z,65.63
2023-04-06T06:46:23.051Z,65.65
2023-04-06T06:48:52.368Z,65.60
2023-04-06T06:51:21.717Z,65.52
2023-04-06T06:53:51.001Z,65.79
2023-04-06T06:56:20.352Z,66.07
2023-04-06T06:58:50.369Z,65.70
2023-04-06T07:01:19.783Z,65.41
2023-04-06T07:03:49.682Z,65.40
2023-04-06T07:06:18.975Z,65.17
2023-04-06T07:08:49.057Z,65.12
2023-04-06T07:11:18.333Z,65.09
2023-04-06T07:13:47.747Z,64.80
2023-04-06T07:16:17.269Z,64.17
2023-04-06T07:18:47.012Z,64.12
2023-04-06T07:21:16.292Z,64.06
2023-04-06T07:23:45.842Z,63.56
2023-04-06T07:26:15.129Z,63.28
2023-04-06T07:28:44.708Z,63.49
2023-04-06T07:31:14.556Z,63.40
2023-04-06T07:33:44.237Z,63.11
2023-04-06T07:36:13.547Z,63.83
2023-04-06T07:38:43.787Z,64.35
2023-04-06T07:41:13.203Z,64.20
2023-04-06T07:43:43.077Z,65.20
2023-04-06T07:46:12.456Z,64.36
2023-04-06T07:48:42.265Z,64.12
2023-04-06T07:51:13.315Z,63.81
2023-04-06T07:53:43.354Z,63.96
2023-04-06T07:56:13.345Z,64.27
2023-04-06T07:58:42.801Z,64.23
2023-04-06T08:01:12.231Z,63.99
2023-04-06T08:03:42.064Z,63.54
2023-04-06T08:06:11.620Z,64.37
2023-04-06T08:08:41.331Z,64.49
2023-04-06T08:11:11.004Z,64.24
2023-04-06T08:13:40.678Z,63.93
2023-04-06T08:16:09.975Z,64.30
2023-04-06T08:18:39.756Z,64.44
2023-04-06T08:21:09.081Z,64.12
2023-04-06T08:23:38.737Z,64.46
2023-04-06T08:26:08.045Z,64.16
2023-04-06T08:28:37.412Z,64.53
2023-04-06T08:31:07.593Z,64.70
2023-04-06T08:33:37.956Z,64.38
2023-04-06T08:36:11.834Z,64.24
2023-04-06T08:38:42.561Z,65.11
2023-04-06T08:41:12.816Z,66.11
2023-04-06T08:43:48.126Z,66.95
2023-04-06T08:46:19.473Z,68.30
2023-04-06T08:48:52.461Z,67.83
2023-04-06T08:51:21.812Z,67.39
2023-04-06T08:53:52.876Z,67.14
2023-04-06T08:56:26.637Z,68.03
2023-04-06T08:58:57.347Z,68.44
2023-04-06T09:01:28.859Z,69.21
2023-04-06T09:04:01.662Z,69.98
2023-04-06T09:06:31.870Z,71.06
2023-04-06T09:09:01.208Z,72.17
2023-04-06T09:11:30.708Z,73.81
2023-04-06T09:13:59.967Z,74.02
2023-04-06T09:16:29.298Z,73.13
2023-04-06T09:19:03.291Z,75.12
2023-04-06T09:21:32.657Z,76.27
2023-04-06T09:24:02.937Z,79.11
2023-04-06T09:26:33.990Z,80.93
2023-04-06T09:29:04.528Z,80.54
2023-04-06T09:31:34.303Z,81.62
2023-04-06T09:34:04.566Z,83.19
2023-04-06T09:36:35.862Z,82.95
2023-04-06T09:39:06.097Z,84.14
2023-04-06T09:41:37.664Z,84.00
2023-04-06T09:44:11.753Z,85.00
2023-04-06T09:46:58.874Z,85.76
2023-04-06T09:49:15.052Z,86.92
2023-04-06T09:52:02.073Z,86.83
2023-04-06T09:54:32.996Z,87.46
2023-04-06T09:57:17.788Z,88.43
2023-04-06T09:59:59.060Z,89.28
2023-04-06T10:02:51.909Z,89.34
2023-04-06T10:05:39.093Z,88.38
2023-04-06T10:08:11.124Z,88.56
2023-04-06T10:10:40.837Z,90.16
2023-04-06T10:13:12.751Z,91.22
2023-04-06T10:15:42.026Z,91.17
2023-04-06T10:18:11.414Z,91.32
2023-04-06T10:20:58.231Z,91.80
2023-04-06T10:23:40.228Z,90.81
2023-04-06T10:26:12.730Z,91.48
2023-04-06T10:28:42.767Z,91.64
2023-04-06T10:31:12.199Z,91.12
2023-04-06T10:33:42.454Z,91.78
2023-04-06T10:36:13.893Z,92.84
2023-04-06T10:38:43.953Z,92.56
2023-04-06T10:41:14.948Z,91.99
2023-04-06T10:43:45.894Z,91.15
2023-04-06T10:46:15.517Z,92.53
2023-04-06T10:48:51.048Z,90.84
2023-04-06T10:51:21.441Z,91.27
2023-04-06T10:53:51.108Z,91.40
2023-04-06T10:56:23.760Z,91.18
2023-04-06T10:58:53.916Z,89.97
2023-04-06T11:01:25.932Z,90.20
2023-04-06T11:04:00.535Z,90.27
2023-04-06T11:06:33.531Z,91.12
2023-04-06T11:09:03.024Z,89.03
2023-04-06T11:11:32.399Z,90.10
2023-04-06T11:14:02.908Z,91.48
2023-04-06T11:16:34.022Z,91.14
2023-04-06T11:19:04.855Z,91.50
2023-04-06T11:21:46.970Z,91.08
2023-04-06T11:24:24.771Z,92.39
2023-04-06T11:26:59.185Z,93.21
2023-04-06T11:29:30.979Z,93.94
2023-04-06T11:32:05.193Z,93.34
2023-04-06T11:34:39.516Z,94.18
2023-04-06T11:37:13.545Z,94.60
2023-04-06T11:39:52.057Z,94.54
2023-04-06T11:42:25.427Z,94.59
2023-04-06T11:44:58.309Z,94.99
2023-04-06T11:47:35.683Z,95.58
2023-04-06T11:50:15.978Z,94.60
2023-04-06T11:52:45.331Z,94.90
2023-04-06T11:55:19.214Z,94.35
2023-04-06T11:57:48.455Z,94.06
2023-04-06T12:00:19.164Z,95.02
2023-04-06T12:02:50.010Z,95.31
2023-04-06T12:05:19.910Z,96.51
2023-04-06T12:07:49.278Z,96.94
2023-04-06T12:10:18.739Z,96.83
2023-04-06T12:12:48.369Z,97.08
2023-04-06T12:15:17.996Z,98.05
2023-04-06T12:17:47.873Z,97.14
2023-04-06T12:20:25.750Z,97.69
2023-04-06T12:22:48.436Z,97.48
2023-04-06T12:25:19.394Z,98.34
2023-04-06T12:27:48.725Z,99.57
2023-04-06T12:30:18.436Z,98.88
2023-04-06T12:32:50.436Z,99.28
2023-04-06T12:35:18.839Z,99.88
2023-04-06T12:37:48.251Z,100.00
2023-04-06T12:40:18.055Z,99.80
2023-04-06T12:42:47.873Z,100.00
2023-04-06T12:45:17.916Z,100.00
2023-04-06T12:50:46.579Z,100.00
2023-04-06T12:53:16.169Z,100.00
2023-04-06T12:55:45.707Z,100.00
2023-04-06T12:58:15.840Z,100.00
2023-04-06T13:00:45.736Z,100.00
2023-04-06T13:03:15.180Z,100.00
2023-04-06T13:05:49.138Z,100.00
2023-04-06T13:08:19.988Z,100.00
2023-04-06T13:10:50.868Z,100.00
2023-04-06T13:13:24.012Z,100.00
2023-04-06T13:15:54.213Z,100.00
2023-04-06T13:18:24.194Z,100.00
2023-04-06T13:20:53.480Z,100.00
2023-04-06T13:23:22.743Z,100.00
2023-04-06T13:26:08.863Z,100.00
2023-04-06T13:28:39.920Z,100.00
2023-04-06T13:31:10.691Z,100.00
2023-04-06T13:33:41.753Z,100.00
2023-04-06T13:36:11.304Z,100.00
2023-04-06T13:38:40.681Z,100.00
2023-04-06T13:41:10.692Z,100.00
2023-04-06T13:43:40.034Z,100.00
2023-04-06T13:46:09.344Z,100.00
2023-04-06T13:48:38.637Z,100.00
2023-04-06T13:51:15.564Z,100.00
2023-04-06T13:53:44.886Z,100.00
2023-04-06T13:56:14.191Z,100.00
2023-04-06T14:01:46.924Z,100.00
2023-04-06T14:04:16.580Z,100.00
2023-04-06T14:06:47.575Z,100.00
2023-04-06T14:09:16.880Z,100.00
2023-04-06T14:11:46.249Z,100.00
2023-04-06T14:14:15.714Z,100.00
2023-04-06T14:16:47.976Z,100.00
2023-04-06T14:19:19.821Z,100.00
2023-04-06T14:21:49.673Z,100.00
2023-04-06T14:24:20.228Z,100.00
2023-04-06T14:26:49.729Z,100.00
2023-04-06T14:29:19.327Z,100.00
2023-04-06T14:31:50.043Z,100.00
2023-04-06T14:34:40.989Z,100.00
2023-04-06T14:37:12.008Z,100.00
2023-04-06T14:39:41.319Z,100.00
2023-04-06T14:42:10.995Z,100.00
2023-04-06T14:44:41.931Z,100.00
2023-04-06T14:47:14.607Z,100.00
2023-04-06T14:49:43.902Z,100.00
2023-04-06T14:52:13.568Z,100.00
2023-04-06T14:54:42.899Z,100.00
2023-04-06T14:57:12.289Z,100.00
2023-04-06T14:59:41.546Z,100.00
2023-04-06T15:02:11.267Z,100.00
2023-04-06T15:04:41.437Z,100.00
2023-04-06T15:07:12.046Z,100.00
2023-04-06T15:09:41.304Z,100.00
2023-04-06T15:12:10.860Z,100.00
2023-04-06T15:14:40.479Z,100.00
2023-04-06T15:17:10.565Z,100.00
2023-04-06T15:19:39.841Z,100.00
2023-04-06T15:22:09.160Z,100.00
2023-04-06T15:24:38.981Z,100.00
2023-04-06T15:27:08.578Z,100.00
2023-04-06T15:29:38.030Z,100.00
2023-04-06T15:32:09.374Z,100.00
2023-04-06T15:34:38.689Z,100.00
2023-04-06T15:37:08.180Z,100.00
2023-04-06T15:39:37.828Z,100.00
2023-04-06T15:42:07.471Z,100.00
2023-04-06T15:44:36.881Z,100.00
2023-04-06T15:47:06.804Z,100.00
2023-04-06T15:49:36.168Z,100.00
2023-04-06T15:52:05.570Z,100.00
2023-04-06T15:54:36.525Z,100.00
2023-04-06T15:57:05.766Z,100.00
2023-04-06T15:59:35.090Z,100.00
2023-04-06T16:02:04.480Z,100.00
2023-04-06T16:04:33.886Z,100.00
2023-04-06T16:07:03.616Z,100.00
2023-04-06T16:09:33.274Z,100.00
2023-04-06T16:12:02.682Z,100.00
2023-04-06T16:14:32.202Z,100.00
2023-04-06T16:17:02.053Z,100.00
2023-04-06T16:19:31.789Z,100.00
2023-04-06T16:22:01.130Z,100.00
2023-04-06T16:24:30.409Z,100.00
2023-04-06T16:27:00.339Z,100.00
2023-04-06T16:29:31.846Z,100.00
2023-04-06T16:32:02.203Z,100.00
2023-04-06T16:34:35.014Z,100.00
2023-04-06T16:37:04.683Z,100.00
2023-04-06T16:39:34.502Z,100.00
2023-04-06T16:42:04.064Z,100.00
2023-04-06T16:44:33.495Z,100.00
2023-04-06T16:47:02.792Z,100.00
2023-04-06T16:49:32.086Z,100.00
2023-04-06T16:52:03.199Z,100.00
2023-04-06T16:54:34.315Z,100.00
2023-04-06T16:57:05.183Z,100.00
2023-04-06T16:59:35.360Z,100.00
2023-04-06T17:02:04.671Z,100.00
2023-04-06T17:04:34.375Z,100.00
2023-04-06T17:07:03.892Z,100.00
2023-04-06T17:12:03.462Z,100.00
2023-04-06T17:14:32.832Z,100.00
2023-04-06T17:17:03.730Z,100.00
2023-04-06T17:19:33.251Z,100.00
2023-04-06T17:22:03.291Z,100.00
2023-04-06T17:24:32.652Z,100.00
2023-04-06T17:27:02.976Z,100.00
2023-04-06T17:29:32.243Z,100.00
2023-04-06T17:32:01.837Z,100.00
2023-04-06T17:34:31.194Z,100.00
2023-04-06T17:37:00.489Z,100.00
2023-04-06T17:39:29.758Z,100.00
2023-04-06T17:42:00.255Z,100.00
2023-04-06T17:44:29.572Z,100.00
2023-04-06T17:46:59.126Z,100.00
2023-04-06T17:49:28.416Z,100.00
2023-04-06T17:51:58.079Z,100.00
2023-04-06T17:54:27.350Z,100.00
2023-04-06T17:56:57.479Z,100.00
2023-04-06T17:59:27.167Z,100.00
2023-04-06T18:01:56.751Z,100.00
2023-04-06T18:04:26.673Z,100.00
2023-04-06T18:06:56.502Z,100.00
2023-04-06T18:11:57.308Z,100.00
2023-04-06T18:14:27.126Z,100.00
2023-04-06T18:16:56.750Z,100.00
2023-04-06T18:19:27.960Z,100.00
2023-04-06T18:21:57.493Z,100.00
2023-04-06T18:24:41.377Z,100.00
2023-04-06T18:26:58.816Z,100.00
2023-04-06T18:29:29.763Z,100.00
2023-04-06T18:31:59.157Z,100.00
2023-04-06T18:34:30.155Z,100.00
2023-04-06T18:37:01.759Z,100.00
2023-04-06T18:39:31.564Z,100.00
2023-04-06T18:42:01.476Z,100.00
2023-04-06T18:44:34.156Z,100.00
2023-04-06T18:47:03.729Z,100.00
2023-04-06T18:49:34.404Z,100.00
2023-04-06T18:52:08.440Z,100.00
2023-04-06T18:54:37.849Z,100.00
2023-04-06T18:57:07.236Z,100.00
2023-04-06T18:59:36.645Z,100.00
2023-04-06T19:02:06.704Z,100.00
2023-04-06T19:04:36.212Z,100.00
2023-04-06T19:07:06.588Z,100.00
2023-04-06T19:09:36.023Z,100.00
2023-04-06T19:12:05.560Z,100.00
2023-04-06T19:14:34.933Z,100.00
2023-04-06T19:17:04.446Z,100.00
2023-04-06T19:19:34.338Z,100.00
2023-04-06T19:22:03.830Z,100.00
2023-04-06T19:24:33.397Z,100.00
2023-04-06T19:27:03.349Z,100.00
2023-04-06T19:29:32.772Z,100.00
2023-04-06T19:32:02.691Z,100.00
2023-04-06T19:34:32.416Z,100.00
2023-04-06T19:37:02.719Z,100.00
2023-04-06T19:39:32.160Z,100.00
2023-04-06T19:42:01.626Z,100.00
2023-04-06T19:44:31.029Z,100.00
2023-04-06T19:47:00.941Z,100.00
2023-04-06T19:49:30.277Z,100.00
2023-04-06T19:52:00.046Z,100.00
2023-04-06T19:54:29.362Z,100.00
2023-04-06T19:56:58.737Z,100.00
2023-04-06T19:59:28.286Z,100.00
2023-04-06T20:01:58.336Z,100.00
2023-04-06T20:04:27.965Z,100.00
2023-04-06T20:06:57.332Z,100.00
2023-04-06T20:09:27.220Z,100.00
2023-04-06T20:11:56.706Z,100.00
2023-04-06T20:14:26.546Z,100.00
2023-04-06T20:16:56.239Z,100.00
2023-04-06T20:19:25.857Z,100.00
2023-04-06T20:21:55.765Z,100.00
2023-04-06T20:24:25.216Z,100.00
2023-04-06T20:26:54.756Z,100.00
2023-04-06T20:29:24.000Z,100.00
2023-04-06T20:31:53.667Z,100.00
2023-04-06T20:34:24.607Z,100.00
2023-04-06T20:36:53.934Z,100.00
2023-04-06T20:39:24.121Z,100.00
2023-04-06T20:41:53.710Z,100.00
2023-04-06T20:44:24.628Z,100.00
2023-04-06T20:46:54.204Z,100.00
2023-04-06T20:49:24.192Z,100.00
2023-04-06T20:51:53.651Z,100.00
2023-04-06T20:54:23.091Z,100.00
2023-04-06T20:56:52.457Z,100.00
2023-04-06T20:59:21.733Z,100.00
2023-04-06T21:01:52.866Z,100.00
2023-04-06T21:04:23.199Z,100.00
2023-04-06T21:06:53.790Z,100.00
2023-04-06T21:09:24.882Z,100.00
2023-04-06T21:11:54.847Z,100.00
2023-04-06T21:14:24.613Z,100.00
2023-04-06T21:16:55.851Z,100.00
2023-04-06T21:19:25.784Z,100.00
2023-04-06T21:21:55.874Z,100.00
2023-04-06T21:24:25.949Z,100.00
2023-04-06T21:26:55.270Z,100.00
2023-04-06T21:29:24.778Z,100.00
2023-04-06T21:31:55.624Z,100.00
2023-04-06T21:34:25.153Z,100.00
2023-04-06T21:36:54.481Z,100.00
2023-04-06T21:39:25.590Z,100.00
2023-04-06T21:41:54.837Z,100.00
2023-04-06T21:44:24.360Z,100.00
2023-04-06T21:46:53.739Z,100.00
2023-04-06T21:49:23.151Z,100.00
2023-04-06T21:51:52.461Z,100.00
2023-04-06T21:54:21.811Z,100.00
2023-04-06T21:56:51.153Z,100.00
2023-04-06T21:59:20.818Z,100.00
2023-04-06T22:01:50.279Z,100.00
2023-04-06T22:04:20.479Z,100.00
2023-04-06T22:06:51.082Z,100.00
2023-04-06T22:09:20.482Z,100.00
2023-04-06T22:11:49.854Z,100.00
2023-04-06T22:14:19.969Z,100.00
2023-04-06T22:16:49.429Z,100.00
2023-04-06T22:19:18.773Z,100.00
2023-04-06T22:21:48.158Z,100.00
2023-04-06T22:24:18.089Z,100.00
2023-04-06T22:26:47.648Z,100.00
2023-04-06T22:29:17.585Z,100.00
2023-04-06T22:31:47.386Z,100.00
2023-04-06T22:34:17.120Z,100.00
2023-04-06T22:36:46.938Z,100.00
2023-04-06T22:39:16.478Z,100.00
2023-04-06T22:41:46.011Z,100.00
2023-04-06T22:44:15.707Z,100.00
2023-04-06T22:46:45.504Z,100.00
2023-04-06T22:49:14.779Z,100.00
2023-04-06T22:51:44.464Z,100.00
2023-04-06T22:54:14.345Z,100.00
2023-04-06T22:56:43.960Z,100.00
2023-04-06T22:59:13.253Z,100.00
2023-04-06T23:01:42.633Z,100.00
2023-04-06T23:04:12.140Z,100.00
2023-04-06T23:06:41.502Z,100.00
2023-04-06T23:09:10.768Z,100.00
2023-04-06T23:11:40.378Z,100.00
2023-04-06T23:14:09.669Z,100.00
2023-04-06T23:16:39.180Z,100.00
2023-04-06T23:19:08.421Z,100.00
2023-04-06T23:21:37.736Z,100.00
2023-04-06T23:24:07.347Z,100.00
2023-04-06T23:26:36.616Z,100.00
2023-04-06T23:29:05.991Z,100.00
2023-04-06T23:31:35.284Z,100.00
2023-04-06T23:34:04.755Z,100.00
2023-04-06T23:36:34.417Z,100.00
2023-04-06T23:39:03.722Z,100.00
2023-04-06T23:41:33.334Z,100.00
2023-04-06T23:44:02.957Z,100.00
2023-04-06T23:46:32.270Z,100.00
2023-04-06T23:49:01.778Z,100.00
2023-04-06T23:51:31.833Z,100.00
2023-04-06T23:54:01.425Z,100.00
2023-04-06T23:56:30.983Z,100.00
2023-04-06T23:59:00.570Z,100.00
